createdAt,value
2022-08-05T00:02:23.006Z,24.26
2022-08-05T00:04:55.400Z,23.42
2022-08-05T00:08:00.546Z,22.40
2022-08-05T00:10:12.496Z,21.63
2022-08-05T00:12:55.900Z,21.12
2022-08-05T00:15:55.095Z,21.18
2022-08-05T00:18:21.694Z,23.27
2022-08-05T00:20:52.206Z,24.58
2022-08-05T00:23:44.627Z,23.57
2022-08-05T00:26:08.423Z,22.37
2022-08-05T00:28:36.933Z,21.64
2022-08-05T00:31:07.642Z,21.11
2022-08-05T00:34:54.424Z,21.09
2022-08-05T00:37:11.368Z,23.05
2022-08-05T00:39:13.793Z,24.35
2022-08-05T00:41:54.977Z,23.31
2022-08-05T00:44:30.587Z,22.20
2022-08-05T00:47:03.660Z,21.47
2022-08-05T00:49:51.086Z,20.96
2022-08-05T00:52:28.578Z,21.10
2022-08-05T00:54:56.717Z,23.10
2022-08-05T00:57:25.372Z,24.41
2022-08-05T01:00:07.377Z,23.35
2022-08-05T01:02:38.924Z,22.22
2022-08-05T01:05:09.995Z,21.45
2022-08-05T01:07:38.084Z,20.88
2022-08-05T01:10:35.451Z,20.97
2022-08-05T01:13:13.358Z,22.94
2022-08-05T01:15:58.690Z,24.22
2022-08-05T01:18:33.578Z,23.07
2022-08-05T01:21:38.153Z,21.95
2022-08-05T01:24:44.676Z,21.04
2022-08-05T01:27:24.537Z,21.15
2022-08-05T01:29:56.327Z,23.20
2022-08-05T01:32:27.653Z,24.40
2022-08-05T01:35:00.775Z,23.32
2022-08-05T01:37:44.433Z,22.15
2022-08-05T01:40:14.228Z,21.30
2022-08-05T01:42:47.138Z,20.74
2022-08-05T01:45:16.653Z,20.71
2022-08-05T01:47:45.090Z,22.40
2022-08-05T01:50:28.798Z,23.75
2022-08-05T01:53:01.682Z,22.71
2022-08-05T01:55:32.442Z,21.60
2022-08-05T01:58:40.745Z,20.79
2022-08-05T02:00:58.801Z,20.79
2022-08-05T02:03:34.444Z,22.65
2022-08-05T02:06:37.662Z,23.92
2022-08-05T02:08:57.985Z,22.66
2022-08-05T02:11:32.768Z,21.53
2022-08-05T02:14:12.963Z,20.75
2022-08-05T02:16:52.747Z,20.68
2022-08-05T02:19:28.392Z,22.57
2022-08-05T02:22:25.764Z,23.85
2022-08-05T02:25:08.489Z,22.59
2022-08-05T02:27:59.483Z,21.44
2022-08-05T02:30:35.158Z,20.63
2022-08-05T02:33:04.891Z,20.52
2022-08-05T02:35:37.648Z,22.25
2022-08-05T02:38:19.344Z,23.60
2022-08-05T02:40:47.656Z,22.54
2022-08-05T02:43:18.164Z,21.42
2022-08-05T02:45:52.165Z,20.61
2022-08-05T02:48:29.560Z,20.52
2022-08-05T02:51:02.708Z,22.34
2022-08-05T02:53:39.206Z,23.66
2022-08-05T02:56:16.137Z,22.58
2022-08-05T02:58:51.152Z,21.39
2022-08-05T03:01:25.144Z,20.60
2022-08-05T03:04:11.961Z,20.51
2022-08-05T03:06:54.539Z,22.42
2022-08-05T03:09:36.039Z,23.67
2022-08-05T03:12:06.336Z,22.48
2022-08-05T03:14:46.042Z,21.39
2022-08-05T03:17:15.802Z,20.61
2022-08-05T03:19:45.566Z,20.50
2022-08-05T03:22:16.534Z,22.17
2022-08-05T03:24:50.695Z,23.56
2022-08-05T03:27:21.553Z,22.59
2022-08-05T03:30:07.482Z,21.46
2022-08-05T03:32:38.025Z,20.63
2022-08-05T03:35:06.442Z,20.53
2022-08-05T03:37:40.972Z,22.27
2022-08-05T03:40:15.394Z,24.30
2022-08-05T03:42:53.073Z,25.08
2022-08-05T03:45:23.304Z,23.71
2022-08-05T03:47:51.679Z,22.42
2022-08-05T03:50:26.670Z,21.56
2022-08-05T03:55:53.789Z,21.36
2022-08-05T03:56:12.148Z,23.40
2022-08-05T03:58:51.200Z,24.58
2022-08-05T04:01:22.296Z,23.46
2022-08-05T04:04:09.744Z,22.42
2022-08-05T04:06:47.802Z,21.65
2022-08-05T04:09:25.924Z,21.66
2022-08-05T04:11:56.566Z,23.52
2022-08-05T04:14:29.962Z,24.87
2022-08-05T04:17:00.342Z,23.94
2022-08-05T04:19:29.287Z,22.93
2022-08-05T04:22:09.045Z,22.27
2022-08-05T04:24:43.848Z,22.30
2022-08-05T04:27:13.484Z,24.08
2022-08-05T04:29:41.589Z,25.47
2022-08-05T04:32:10.387Z,24.63
2022-08-05T04:34:42.842Z,23.58
2022-08-05T04:37:11.291Z,22.83
2022-08-05T04:39:40.122Z,22.33
2022-08-05T04:42:08.248Z,22.40
2022-08-05T04:44:36.827Z,24.15
2022-08-05T04:47:08.733Z,25.52
2022-08-05T04:50:01.515Z,24.72
2022-08-05T04:52:28.578Z,23.65
2022-08-05T04:54:57.073Z,23.05
2022-08-05T04:57:28.906Z,23.06
2022-08-05T04:59:58.811Z,24.81
2022-08-05T05:02:41.548Z,26.21
2022-08-05T05:05:16.826Z,25.29
2022-08-05T05:08:01.840Z,24.28
2022-08-05T05:10:33.096Z,23.62
2022-08-05T05:13:04.077Z,23.15
2022-08-05T05:15:57.545Z,22.83
2022-08-05T05:18:28.290Z,23.07
2022-08-05T05:20:58.978Z,25.12
2022-08-05T05:23:38.809Z,26.48
2022-08-05T05:26:14.647Z,25.47
2022-08-05T05:28:45.095Z,24.51
2022-08-05T05:31:13.429Z,23.87
2022-08-05T05:33:59.632Z,23.45
2022-08-05T05:36:29.957Z,23.65
2022-08-05T05:38:58.037Z,25.57
2022-08-05T05:41:26.647Z,26.95
2022-08-05T05:44:35.693Z,26.10
2022-08-05T05:46:58.089Z,25.12
2022-08-05T05:49:26.489Z,24.58
2022-08-05T05:51:54.896Z,24.21
2022-08-05T05:54:22.711Z,23.92
2022-08-05T05:57:13.829Z,23.69
2022-08-05T05:59:48.967Z,23.52
2022-08-05T06:02:17.024Z,23.78
2022-08-05T06:05:01.365Z,25.85
2022-08-05T06:07:41.929Z,27.34
2022-08-05T06:10:10.773Z,26.59
2022-08-05T06:12:42.353Z,25.80
2022-08-05T06:15:16.487Z,25.28
2022-08-05T06:17:52.977Z,24.93
2022-08-05T06:20:21.951Z,24.70
2022-08-05T06:22:49.718Z,24.54
2022-08-05T06:25:59.207Z,24.42
2022-08-05T06:28:12.385Z,24.91
2022-08-05T06:30:49.253Z,27.21
2022-08-05T06:33:19.168Z,28.59
2022-08-05T06:36:07.620Z,27.77
2022-08-05T06:38:36.813Z,26.73
2022-08-05T06:41:07.860Z,26.13
2022-08-05T06:43:59.013Z,25.73
2022-08-05T06:46:29.654Z,25.44
2022-08-05T06:49:01.293Z,25.29
2022-08-05T06:51:30.968Z,25.20
2022-08-05T06:54:02.682Z,25.12
2022-08-05T06:56:34.476Z,25.05
2022-08-05T06:59:09.461Z,25.02
2022-08-05T07:01:40.807Z,25.03
2022-08-05T07:04:10.065Z,25.06
2022-08-05T07:06:37.734Z,25.10
2022-08-05T07:09:05.436Z,25.50
2022-08-05T07:11:37.350Z,26.97
2022-08-05T07:14:30.292Z,26.98
2022-08-05T07:17:59.179Z,26.57
2022-08-05T07:22:42.417Z,26.16
2022-08-05T07:25:54.345Z,26.11
2022-08-05T07:28:03.863Z,26.12
2022-08-05T07:30:38.288Z,26.13
2022-08-05T07:33:16.113Z,26.14
2022-08-05T07:36:04.135Z,26.17
2022-08-05T07:38:42.570Z,26.22
2022-08-05T07:42:14.570Z,26.28
2022-08-05T07:44:19.163Z,26.36
2022-08-05T07:46:49.596Z,26.43
2022-08-05T07:49:19.497Z,26.51
2022-08-05T07:51:53.560Z,26.56
2022-08-05T07:54:31.329Z,26.60
2022-08-05T07:57:17.554Z,26.67
2022-08-05T07:59:52.494Z,26.76
2022-08-05T08:02:26.763Z,26.81
2022-08-05T08:05:00.068Z,26.88
2022-08-05T08:07:28.937Z,26.95
2022-08-05T08:10:07.276Z,27.05
2022-08-05T08:12:48.674Z,27.16
2022-08-05T08:15:17.707Z,27.27
2022-08-05T08:18:13.770Z,27.34
2022-08-05T08:21:00.496Z,27.41
2022-08-05T08:24:01.969Z,27.50
2022-08-05T08:26:17.664Z,27.59
2022-08-05T08:29:02.159Z,27.67
2022-08-05T08:31:42.778Z,27.77
2022-08-05T08:34:10.753Z,27.87
2022-08-05T08:36:49.113Z,27.92
2022-08-05T08:39:18.493Z,27.96
2022-08-05T08:41:59.754Z,28.05
2022-08-05T08:45:25.273Z,28.18
2022-08-05T08:48:05.860Z,28.33
2022-08-05T08:50:31.980Z,28.52
2022-08-05T08:53:11.896Z,28.75
2022-08-05T08:56:03.864Z,28.96
2022-08-05T08:58:43.564Z,29.17
2022-08-05T09:01:17.015Z,29.39
2022-08-05T09:03:47.589Z,29.61
2022-08-05T09:06:21.421Z,29.86
2022-08-05T09:08:52.117Z,30.16
2022-08-05T09:11:51.837Z,30.49
2022-08-05T09:14:54.058Z,30.94
2022-08-05T09:16:56.051Z,31.43
2022-08-05T09:19:27.861Z,32.21
2022-08-05T09:22:23.143Z,33.50
2022-08-05T09:25:23.644Z,35.29
2022-08-05T09:28:05.016Z,37.17
2022-08-05T09:30:34.937Z,38.95
2022-08-05T09:33:04.728Z,40.28
2022-08-05T09:35:32.873Z,41.49
2022-08-05T09:38:17.325Z,42.49
2022-08-05T09:40:52.258Z,43.50
2022-08-05T09:43:41.087Z,44.85
2022-08-05T09:46:35.061Z,46.21
2022-08-05T09:49:18.965Z,47.12
2022-08-05T09:51:49.450Z,47.60
2022-08-05T09:54:29.577Z,48.18
2022-08-05T09:57:01.362Z,48.98
2022-08-05T09:59:35.050Z,49.81
2022-08-05T10:02:05.365Z,50.32
2022-08-05T10:04:38.480Z,50.49
2022-08-05T10:07:20.175Z,50.73
2022-08-05T10:10:13.990Z,51.04
2022-08-05T10:12:49.195Z,51.30
2022-08-05T10:15:34.298Z,51.88
2022-08-05T10:18:21.531Z,52.59
2022-08-05T10:20:52.175Z,53.45
